Timeline UpdatesTrip UpdatesNews PostsPvt PostsTravel TipsAdmin PostsConv PostsFollowed PostsChat RequestsBlog PostsPNR Posts

Disclaimer
Search
 
 
Tue Jul 29, 2014 14:10:58 ISTHomeTrainsΣChainsAtlasPNRForumGalleryNewsFAQTripsMembersLoginFeedback
No Recent News for this Train
Other Trains in the News **new
Latest...
⇐ Return Journey: Train# 18236

18235/Bhopal Bilaspur Express

Oct 02 2013 (5:25PM)
Change Departure Station:
Change Arrival Station:
Post a Train Travel TipPost a Train Travel Tip **new
Post a Comment/Question/Picture/VideoPost a Comment/Question/Picture/Video
Pantry/Catering
???
RSA - Rake Sharing
Rake/Coach Composition
.LOCO- GEN GEN GEN GEN FC1 S1 S2 S3 GEN GS GEN SLR SL(slip).; Entry# 311744.; Author: Shubham.
Loco
Loco In-Charge :- BIA WAM-4
News    PNR    Forum    Time-Table    Availability    Fare Chart    Map    Arr/Dep History    Trips    Gallery    ΣChains    X/O    Timeline    
Travel Time: 1h 50m    6 halts    Distance: 113 km    Avg Speed: 61 km/hr
Type: Mail/Express
Zone: SECR/South East Central
Departs @ 08:00 (Avg 2m late)
Platform# 5
SMTWTFS
Bhopal Junction/BPL 
Arrives @ 09:50 (Avg 51m late)
Platform# ???
SMTWTFS
Kalhar/KAH 

6 halts. 17 intermediate Stations between Bhopal Junction and Kalhar

Show ALL intermediate Stations  Show Old Time-Table

#CodeStation NameX/OArrivesAvgDepartsAvgHaltPFDay#KmSpeedElevZoneAddress
1BPL»Bhopal Junction (6)»  -08:00+2510.079497mWCRBhopal, Madhya Pradesh
2DWGDewanGanj (3)X  08:21+1708:23+202m1127.662444mWCRRaisen, Madhya Pradesh
3SMTSalamatpur (3)X  08:32+2108:34+212m--136.849437mWCRRaisen, Madhya Pradesh
4SCISanchi (2)X  08:43+2008:45+212m2144.151428mWCRRaisen, Madhya Pradesh
5BHSVidisha (3)XO  08:56+1708:58+192m1153.584432mWCRVidisha, Madhya Pradesh
6GLGGulabhGanj (3)X  09:13+3009:15+312m1174.569432mWCRVidisha, Madhya Pradesh
7BAQGanj Basoda (4)  09:31+2509:33+252m1192.869416mWCRVidisha, Madhya Pradesh
8KAH•Kalhar (3)•  09:50+5109:52+522m--1112.553409mWCRSagar, Madhya Pradesh
9MABAMandi Bamora (3)X  10:02+3210:04+322m11121.329413mWCRState Highway 14, Madhya Pradesh
10BINABina Junction (4)X  10:40+1110:50+910m31138.627414mWCRJn Pt - KATNI/GUNA/ BPL/JHS, Madhya Pradesh
11BJQBaghora (2)  11:12+3511:14+372m21148.659420mWCRSagar, Madhya Pradesh
12KYEKhurai (5)X  11:26+3511:28+352m--1160.559439mWCRKhurai, Madhya Pradesh
13SMRRSumreriXO  11:37+3911:39+392m--1169.339443mWCRKhurai, Madhya Pradesh
14JRKJeruwa Khera  11:53+3511:55+372m--1178.450498mWCRJeruwakhera, Madhya Pradesh
15ISHIsarwara  12:06+3712:08+382m--1187.437487mWCRSagar, Madhya Pradesh
16NOINariaoliX  12:20+3512:22+362m--1194.939485mWCRSagar, Madhya Pradesh
17SGOSaugor (2)  12:50+2813:00+2810m--1213.324519mWCRMP 470001Madhya pradesh, Madhya Pradesh
18MKRNMakronia  13:18+2613:20+352m--1220.472527mWCRRajakhedi, Madhya Pradesh
19LDALidhora Khurd  13:26+4013:28+412m--1227.667496mWCRSagar, Madhya Pradesh
20GWGirwar  13:37+4213:42+405m--1237.664472mWCRSagar, Madhya Pradesh
21GAJGaneshGanjXO  13:55+4314:00+445m--1251.439419mWCRPatharia, Madhya Pradesh
22PHAPathariaX  14:20+3914:25+395m--1264.236382mWCRState Highway 14, Madhya Pradesh
23ANAAslanaXO  14:48+3214:50+362m--1278.021367mWCRDamoh, Madhya Pradesh
24DMODamoh (2)  15:25+2115:35+2010m--1290.461365mWCRDamoh, Madhya Pradesh
25KYXKarhiya BhadeliX  15:43+2315:45+232m--1298.533365mWCRGhatera, Madhya Pradesh
26BNUBandakpur  15:58+1816:00+202m--1305.764352mWCRBandakpur Rd, Madhya Pradesh
27GEAGhatera  16:10+2116:15+185m--1316.454332mWCRBandakpur Rd, Madhya Pradesh
28SAOSagoni  16:33+1716:35+202m--1332.532358mWCRGhatera, Madhya Pradesh
29SYASalaia  17:09+1217:11+132m--1350.752438mWCRGhatera, Madhya Pradesh
30BQQBakhleta  17:23+1117:25+112m--1361.039429mWCRKatni, Madhya Pradesh
31REIRithi  17:38+817:40+82m--1369.455427mWCRKatni, Madhya Pradesh
32HDUHardua  17:56+617:58+72m--1384.242394mWCRKatni, Madhya Pradesh
33KMZKatni Murwara  18:20+418:40+320m--1399.522385mWCRMP 483504 ?, Madhya Pradesh
34JLWJhalwara  19:09+1019:11+112m--1410.370406mSECRNational Highway 78, Madhya Pradesh
35RPDRupaund  19:21+1219:23+122m--1422.035417mSECRJhalwara, Madhya Pradesh
36VYKVilayatkalan RoadX  19:31+1219:33+112m--1426.695425mSECRJhalwara, Madhya Pradesh
37CHDChandia Road (1)  19:41+1319:43+142m11439.359406mSECRNational Highway 78, Madhya Pradesh
38LOALorha  19:52+1319:54+122m--1448.255464mSECRUmaria, Madhya Pradesh
39UMRUmaria (3)  20:05+1120:10+115m--1458.395469mSECRUmaria, Madhya Pradesh
40KKIKarkeliX  20:18+1820:20+172m--1470.960471mSECRUmaria, Madhya Pradesh
41NRZBNowrozabad  20:30+1820:32+182m--1481.062458mSECRNational Highway 78, Madhya Pradesh
42BRSBirsinghpurX  20:39+1720:41+172m--1488.270461mSECRPali, Madhya Pradesh
43GGTGhunghuti  20:55+2220:57+222m--1504.469522mSECRNational Highway 78, Madhya Pradesh
44BDWABandhwa ParaX  21:08+2321:10+242m--1517.017474mSECRNational Highway 78, Madhya Pradesh
45SDLShahdol  21:40+821:50+1110m--1525.559466mSECR, Madhya Pradesh
46SNGPSinghpur  21:56+1521:58+152m--1531.468502mSECRBurhar, Madhya Pradesh
47BUHBurhar  22:10+1522:12+152m--1545.065494mSECRBurhar, Madhya Pradesh
48AALAmlaiX  22:20+1622:22+162m--1553.842495mSECRAnuppur, Madhya Pradesh
49APRAnuppur Junction (3)  22:40+923:05+1325m--1566.477487mSECRAnuppur, Madhya Pradesh
50CLFChhulhaX  23:09+2523:11+362m--1571.675488mSECRMauhari, Madhya Pradesh
51JTIJaithariX  23:18+3823:20+462m--1580.380522mSECRAnuppur, Madhya Pradesh
52NIQNigaura  23:28+4823:30+582m--1591.057547mSECRAnuppur, Madhya Pradesh
53VKRVenkatnagar  23:38+5923:40+1:052m--1598.649549mSECRPendra Rd, Madhya Pradesh
54HRBHarri  23:53+1:0523:55+1:112m--1609.225595mSECRVenkatnagar, Madhya Pradesh
55PNDPendra RoadX  00:15+5200:25+5110m--2617.676620mSECRBilaspur district, Chhattisgarh
56SBRASarbahara  00:29+1:0100:31+1:052m--2622.755589mSECRBilaspur, Chhattisgarh
57KOIKhodriX  00:38+1:0700:40+1:072m--2629.038558mSECRBilaspur, Chhattisgarh
58BHTKBhanwar TonkX  00:58+1:0500:59+1:061m--2640.644455mSECRKhodri, Chhattisgarh
59KGSKhongsara  01:16+1:0501:18+1:062m--2653.064378mSECRBhanwar, Chhattisgarh
60TGQTenganmada  01:26+1:0701:28+1:072m--2661.574367mSECRBelgahna, Chhattisgarh
61BIGBelgahna  01:36+1:0701:38+1:072m--2671.365327mSECRBilaspur, Chhattisgarh
62SLKRSalkaroad  01:45+1:0801:47+1:072m--2679.070333mSECRGhutku, Chhattisgarh
63KGBKargi Road  01:54+1:0701:56+1:072m--2687.120327mSECRBilaspur, Chhattisgarh
64KLTRKalmitarX  02:20+5002:22+502m--2695.025300mSECRUsalapur, Chhattisgarh
65GTKGhutku  02:41+3802:43+392m--2703.021288mSECRBilaspur, Chhattisgarh
66USLUslapur (3)  03:05+2603:07+252m--2710.614272mSECRBilaspur, Chhattisgarh
67BSPBilaspur Junction (8)  03:45+4-72719.1-271mSECRBilaspur, Chhattisgarh
Scroll to Top
Scroll to Bottom